Epinal, Epinal Mirecourt Airport (LFSG)

NameEpinal Mirecourt Airport
CityEpinal
CountryFrance
ICAOLFSG
IATAEPL
Altitude330 m
CoordinatesGoogle Map
Live Air TrafficLiveATC.net
METARLFSG 170900Z AUTO 23010KT 9999 BKN010 OVC018 06/05 Q1022
2018-12-17 09:00:00 Wind: Southwest (230°) 5.14 m/s - Visibility: > 10000 m - Temperature: 6 °C - Dew point: 5 °C - Humidity: 93.4% - Pressure: 1022 hPa
Statistics

The table below shows the detailed information of all flights to/from Epinal, Epinal Mirecourt Airport (LFSG).